OEDM

Details ICAO OEDM
Name PRINCE SALMAN BIN ABDULAZIZ
Region Saudi Arabia
Timezone Asia/Riyadh (UTC+3.0)
Plans Departing 4
Arriving 3
Stats Elevation 3,026 ft / 922 m (AMSL)
Location 24.449858° 44.121184°
Runways 1
Magnetic Variation 3.287° E
Sunrise 2017-12-18 03:42:43 UTC / 2017-12-18 06:42:43 Local
Sunset 2017-12-18 14:20:07 UTC / 2017-12-18 17:20:07 Local
Advertisement - Login to hide

Runways

ID Width Length Bearing (true) Bearing (mag) Surface Threshold Offset Overrun Length
15 147 ft / 45 m 10,045 ft / 3,062 m 153.91° 150.62° Asphalt 0 ft / 0 m 400 ft / 122 m
33 147 ft / 45 m 10,045 ft / 3,062 m 333.92° 330.63° Asphalt 0 ft / 0 m 400 ft / 122 m

Map

Weather


0- 5 10 15 20 25 30 35+ Temperature / ° C

Clouds and Precipitation
Forecast for 2017-12-18 12:00 UTC. Updated 2 hours ago

Ground ~20,000 ft ~40,000 ft Winds

METAR

OEDM 181200Z 09005KT CAVOK 18/M08 Q1024

TAF

Not found

Frequencies

Unicom 122.80 MHz CTAF
Warning: Do not use this data for real-world aviation or navigation. No guarantee of current accuracy is given.